sensor_id;sensor_type;location;lat;lon;timestamp;P1;durP1;ratioP1;P2;durP2;ratioP2
68509;SDS011;55512;50.102;19.958;2023-02-16T00:01:52;72.40;;;34.40;;
68509;SDS011;55512;50.102;19.958;2023-02-16T00:04:22;57.80;;;28.10;;
68509;SDS011;55512;50.102;19.958;2023-02-16T00:06:50;67.90;;;31.40;;
68509;SDS011;55512;50.102;19.958;2023-02-16T00:09:17;58.60;;;28.20;;
68509;SDS011;55512;50.102;19.958;2023-02-16T00:11:44;65.40;;;31.70;;
68509;SDS011;55512;50.102;19.958;2023-02-16T00:14:29;88.70;;;42.30;;
68509;SDS011;55512;50.102;19.958;2023-02-16T00:16:57;76.00;;;36.80;;
68509;SDS011;55512;50.102;19.958;2023-02-16T00:19:26;87.30;;;42.40;;
68509;SDS011;55512;50.102;19.958;2023-02-16T00:21:58;90.90;;;41.50;;
68509;SDS011;55512;50.102;19.958;2023-02-16T00:24:26;90.90;;;39.00;;
68509;SDS011;55512;50.102;19.958;2023-02-16T00:26:53;91.20;;;39.90;;
68509;SDS011;55512;50.102;19.958;2023-02-16T00:29:20;87.90;;;37.20;;
68509;SDS011;55512;50.102;19.958;2023-02-16T00:31:50;96.70;;;44.50;;
68509;SDS011;55512;50.102;19.958;2023-02-16T00:34:26;72.40;;;33.80;;
68509;SDS011;55512;50.102;19.958;2023-02-16T00:36:56;72.10;;;31.70;;
68509;SDS011;55512;50.102;19.958;2023-02-16T00:39:23;85.10;;;39.80;;
68509;SDS011;55512;50.102;19.958;2023-02-16T00:41:52;79.50;;;38.90;;
68509;SDS011;55512;50.102;19.958;2023-02-16T00:44:26;93.20;;;43.10;;
68509;SDS011;55512;50.102;19.958;2023-02-16T00:46:59;82.90;;;36.70;;
68509;SDS011;55512;50.102;19.958;2023-02-16T00:49:27;91.20;;;41.60;;
68509;SDS011;55512;50.102;19.958;2023-02-16T00:51:52;89.50;;;39.50;;
68509;SDS011;55512;50.102;19.958;2023-02-16T00:54:18;91.70;;;41.00;;
68509;SDS011;55512;50.102;19.958;2023-02-16T00:56:44;86.50;;;40.10;;
68509;SDS011;55512;50.102;19.958;2023-02-16T00:59:15;78.80;;;37.50;;
68509;SDS011;55512;50.102;19.958;2023-02-16T01:01:44;80.70;;;38.90;;
68509;SDS011;55512;50.102;19.958;2023-02-16T01:04:16;82.10;;;37.70;;
68509;SDS011;55512;50.102;19.958;2023-02-16T01:06:45;81.80;;;36.00;;
68509;SDS011;55512;50.102;19.958;2023-02-16T01:09:29;80.80;;;36.30;;
68509;SDS011;55512;50.102;19.958;2023-02-16T01:12:15;85.60;;;37.90;;
68509;SDS011;55512;50.102;19.958;2023-02-16T01:14:44;77.80;;;35.60;;
68509;SDS011;55512;50.102;19.958;2023-02-16T01:17:14;78.80;;;35.20;;
68509;SDS011;55512;50.102;19.958;2023-02-16T01:19:40;85.10;;;38.60;;
68509;SDS011;55512;50.102;19.958;2023-02-16T01:22:05;85.20;;;39.30;;
68509;SDS011;55512;50.102;19.958;2023-02-16T01:24:32;86.30;;;38.70;;
68509;SDS011;55512;50.102;19.958;2023-02-16T01:26:57;77.40;;;36.30;;
68509;SDS011;55512;50.102;19.958;2023-02-16T01:29:23;76.30;;;36.60;;
68509;SDS011;55512;50.102;19.958;2023-02-16T01:31:48;86.70;;;38.50;;
68509;SDS011;55512;50.102;19.958;2023-02-16T01:34:14;84.90;;;38.60;;
68509;SDS011;55512;50.102;19.958;2023-02-16T01:36:45;81.70;;;37.40;;
68509;SDS011;55512;50.102;19.958;2023-02-16T01:39:14;77.80;;;37.80;;
68509;SDS011;55512;50.102;19.958;2023-02-16T01:44:50;76.70;;;35.50;;
68509;SDS011;55512;50.102;19.958;2023-02-16T01:47:29;75.10;;;33.70;;
68509;SDS011;55512;50.102;19.958;2023-02-16T01:50:11;72.60;;;32.80;;
68509;SDS011;55512;50.102;19.958;2023-02-16T01:53:25;50.00;;;23.00;;
68509;SDS011;55512;50.102;19.958;2023-02-16T01:56:01;73.10;;;33.10;;
68509;SDS011;55512;50.102;19.958;2023-02-16T02:04:02;69.40;;;31.20;;
68509;SDS011;55512;50.102;19.958;2023-02-16T02:06:53;50.00;;;21.90;;
68509;SDS011;55512;50.102;19.958;2023-02-16T02:09:24;61.30;;;26.00;;
68509;SDS011;55512;50.102;19.958;2023-02-16T02:12:08;68.80;;;31.50;;
68509;SDS011;55512;50.102;19.958;2023-02-16T02:14:39;71.40;;;31.20;;
68509;SDS011;55512;50.102;19.958;2023-02-16T02:17:15;64.90;;;31.00;;
68509;SDS011;55512;50.102;19.958;2023-02-16T02:32:05;67.80;;;28.80;;
68509;SDS011;55512;50.102;19.958;2023-02-16T02:47:51;69.40;;;29.70;;
68509;SDS011;55512;50.102;19.958;2023-02-16T02:53:54;63.30;;;28.50;;
68509;SDS011;55512;50.102;19.958;2023-02-16T02:56:55;61.70;;;27.70;;
68509;SDS011;55512;50.102;19.958;2023-02-16T02:59:57;65.30;;;27.40;;
68509;SDS011;55512;50.102;19.958;2023-02-16T03:02:57;45.70;;;19.40;;
68509;SDS011;55512;50.102;19.958;2023-02-16T03:05:30;63.40;;;26.90;;
68509;SDS011;55512;50.102;19.958;2023-02-16T03:08:03;57.90;;;25.10;;
68509;SDS011;55512;50.102;19.958;2023-02-16T03:10:44;59.40;;;25.80;;
68509;SDS011;55512;50.102;19.958;2023-02-16T03:13:39;57.70;;;24.60;;
68509;SDS011;55512;50.102;19.958;2023-02-16T03:16:24;61.00;;;26.60;;
68509;SDS011;55512;50.102;19.958;2023-02-16T03:18:55;58.40;;;26.40;;
68509;SDS011;55512;50.102;19.958;2023-02-16T03:21:41;62.90;;;26.70;;
68509;SDS011;55512;50.102;19.958;2023-02-16T03:24:29;63.40;;;25.60;;
68509;SDS011;55512;50.102;19.958;2023-02-16T03:27:23;50.60;;;20.00;;
68509;SDS011;55512;50.102;19.958;2023-02-16T03:30:11;50.60;;;21.80;;
68509;SDS011;55512;50.102;19.958;2023-02-16T03:32:38;53.60;;;23.90;;
68509;SDS011;55512;50.102;19.958;2023-02-16T03:35:04;59.90;;;25.70;;
68509;SDS011;55512;50.102;19.958;2023-02-16T03:37:31;52.50;;;23.60;;
68509;SDS011;55512;50.102;19.958;2023-02-16T03:39:57;56.30;;;23.70;;
68509;SDS011;55512;50.102;19.958;2023-02-16T03:42:49;57.70;;;23.30;;
68509;SDS011;55512;50.102;19.958;2023-02-16T03:45:17;27.70;;;10.40;;
68509;SDS011;55512;50.102;19.958;2023-02-16T03:47:43;51.90;;;22.90;;
68509;SDS011;55512;50.102;19.958;2023-02-16T03:50:09;57.80;;;24.10;;
68509;SDS011;55512;50.102;19.958;2023-02-16T03:52:34;55.30;;;24.30;;
68509;SDS011;55512;50.102;19.958;2023-02-16T03:55:00;48.90;;;21.80;;
68509;SDS011;55512;50.102;19.958;2023-02-16T03:57:25;51.20;;;23.60;;
68509;SDS011;55512;50.102;19.958;2023-02-16T03:59:51;53.60;;;22.30;;
68509;SDS011;55512;50.102;19.958;2023-02-16T04:02:19;51.70;;;22.50;;
68509;SDS011;55512;50.102;19.958;2023-02-16T04:04:45;46.60;;;19.40;;
68509;SDS011;55512;50.102;19.958;2023-02-16T04:07:11;51.40;;;21.00;;
68509;SDS011;55512;50.102;19.958;2023-02-16T04:09:36;51.20;;;21.70;;
68509;SDS011;55512;50.102;19.958;2023-02-16T04:12:02;49.70;;;21.40;;
68509;SDS011;55512;50.102;19.958;2023-02-16T04:14:46;47.90;;;20.70;;
68509;SDS011;55512;50.102;19.958;2023-02-16T04:17:12;49.00;;;21.70;;
68509;SDS011;55512;50.102;19.958;2023-02-16T04:19:37;50.20;;;21.30;;
68509;SDS011;55512;50.102;19.958;2023-02-16T04:22:03;51.90;;;22.20;;
68509;SDS011;55512;50.102;19.958;2023-02-16T04:24:28;50.40;;;22.60;;
68509;SDS011;55512;50.102;19.958;2023-02-16T04:26:54;51.90;;;22.50;;
68509;SDS011;55512;50.102;19.958;2023-02-16T04:29:19;53.60;;;22.80;;
68509;SDS011;55512;50.102;19.958;2023-02-16T04:31:45;53.60;;;22.10;;
68509;SDS011;55512;50.102;19.958;2023-02-16T04:34:10;51.60;;;21.90;;
68509;SDS011;55512;50.102;19.958;2023-02-16T04:36:36;45.70;;;20.50;;
68509;SDS011;55512;50.102;19.958;2023-02-16T04:39:01;44.40;;;20.20;;
68509;SDS011;55512;50.102;19.958;2023-02-16T04:41:27;46.80;;;21.90;;
68509;SDS011;55512;50.102;19.958;2023-02-16T04:43:53;47.80;;;22.00;;
68509;SDS011;55512;50.102;19.958;2023-02-16T04:46:18;51.00;;;21.70;;
68509;SDS011;55512;50.102;19.958;2023-02-16T04:48:44;44.90;;;19.90;;
68509;SDS011;55512;50.102;19.958;2023-02-16T04:51:09;49.70;;;22.70;;
68509;SDS011;55512;50.102;19.958;2023-02-16T04:53:35;34.00;;;14.60;;
68509;SDS011;55512;50.102;19.958;2023-02-16T04:56:00;34.60;;;12.30;;
68509;SDS011;55512;50.102;19.958;2023-02-16T04:58:26;44.40;;;20.60;;
68509;SDS011;55512;50.102;19.958;2023-02-16T05:00:51;22.00;;;10.50;;
68509;SDS011;55512;50.102;19.958;2023-02-16T05:03:17;36.90;;;16.00;;
68509;SDS011;55512;50.102;19.958;2023-02-16T05:05:42;52.20;;;22.80;;
68509;SDS011;55512;50.102;19.958;2023-02-16T05:08:08;48.70;;;21.00;;
68509;SDS011;55512;50.102;19.958;2023-02-16T05:10:34;46.50;;;21.40;;
68509;SDS011;55512;50.102;19.958;2023-02-16T05:13:00;54.30;;;23.70;;
68509;SDS011;55512;50.102;19.958;2023-02-16T05:16:04;48.80;;;20.60;;
68509;SDS011;55512;50.102;19.958;2023-02-16T05:18:29;56.20;;;21.70;;
68509;SDS011;55512;50.102;19.958;2023-02-16T05:20:55;49.60;;;22.50;;
68509;SDS011;55512;50.102;19.958;2023-02-16T05:23:39;50.30;;;21.70;;
68509;SDS011;55512;50.102;19.958;2023-02-16T05:26:04;50.40;;;20.60;;
68509;SDS011;55512;50.102;19.958;2023-02-16T05:28:30;49.10;;;21.80;;
68509;SDS011;55512;50.102;19.958;2023-02-16T05:30:55;51.00;;;22.20;;
68509;SDS011;55512;50.102;19.958;2023-02-16T05:33:21;50.80;;;21.60;;
68509;SDS011;55512;50.102;19.958;2023-02-16T05:35:46;50.40;;;22.00;;
68509;SDS011;55512;50.102;19.958;2023-02-16T05:38:12;51.50;;;22.40;;
68509;SDS011;55512;50.102;19.958;2023-02-16T05:40:37;40.80;;;16.20;;
68509;SDS011;55512;50.102;19.958;2023-02-16T05:43:02;47.50;;;22.30;;
68509;SDS011;55512;50.102;19.958;2023-02-16T05:45:28;51.10;;;22.10;;
68509;SDS011;55512;50.102;19.958;2023-02-16T05:47:53;54.50;;;22.90;;
68509;SDS011;55512;50.102;19.958;2023-02-16T05:50:19;51.10;;;21.80;;
68509;SDS011;55512;50.102;19.958;2023-02-16T05:52:44;53.70;;;21.60;;
68509;SDS011;55512;50.102;19.958;2023-02-16T05:55:10;51.60;;;21.20;;
68509;SDS011;55512;50.102;19.958;2023-02-16T05:57:35;53.00;;;23.00;;
68509;SDS011;55512;50.102;19.958;2023-02-16T06:00:01;53.10;;;23.50;;
68509;SDS011;55512;50.102;19.958;2023-02-16T06:02:28;53.90;;;21.60;;
68509;SDS011;55512;50.102;19.958;2023-02-16T06:04:53;51.80;;;21.70;;
68509;SDS011;55512;50.102;19.958;2023-02-16T06:07:19;47.90;;;22.00;;
68509;SDS011;55512;50.102;19.958;2023-02-16T06:09:44;33.90;;;14.90;;
68509;SDS011;55512;50.102;19.958;2023-02-16T06:12:10;48.60;;;21.80;;
68509;SDS011;55512;50.102;19.958;2023-02-16T06:14:35;53.60;;;23.70;;
68509;SDS011;55512;50.102;19.958;2023-02-16T06:17:01;53.00;;;22.40;;
68509;SDS011;55512;50.102;19.958;2023-02-16T06:19:26;48.80;;;21.20;;
68509;SDS011;55512;50.102;19.958;2023-02-16T06:21:51;51.00;;;22.10;;
68509;SDS011;55512;50.102;19.958;2023-02-16T06:24:17;52.30;;;22.60;;
68509;SDS011;55512;50.102;19.958;2023-02-16T06:26:43;50.70;;;21.60;;
68509;SDS011;55512;50.102;19.958;2023-02-16T06:29:08;51.90;;;23.80;;
68509;SDS011;55512;50.102;19.958;2023-02-16T06:31:34;53.80;;;23.00;;
68509;SDS011;55512;50.102;19.958;2023-02-16T06:33:59;47.50;;;20.50;;
68509;SDS011;55512;50.102;19.958;2023-02-16T06:36:28;49.00;;;22.40;;
68509;SDS011;55512;50.102;19.958;2023-02-16T06:38:53;49.00;;;23.50;;
68509;SDS011;55512;50.102;19.958;2023-02-16T06:41:19;54.90;;;25.30;;
68509;SDS011;55512;50.102;19.958;2023-02-16T06:44:01;51.20;;;23.20;;
68509;SDS011;55512;50.102;19.958;2023-02-16T06:46:28;54.80;;;21.10;;
68509;SDS011;55512;50.102;19.958;2023-02-16T06:48:54;52.80;;;23.40;;
68509;SDS011;55512;50.102;19.958;2023-02-16T06:51:20;52.30;;;22.80;;
68509;SDS011;55512;50.102;19.958;2023-02-16T06:53:46;55.70;;;24.80;;
68509;SDS011;55512;50.102;19.958;2023-02-16T06:56:12;49.90;;;22.30;;
68509;SDS011;55512;50.102;19.958;2023-02-16T06:58:37;48.30;;;22.30;;
68509;SDS011;55512;50.102;19.958;2023-02-16T07:01:03;51.00;;;23.90;;
68509;SDS011;55512;50.102;19.958;2023-02-16T07:03:28;50.40;;;22.50;;
68509;SDS011;55512;50.102;19.958;2023-02-16T07:05:54;60.50;;;25.10;;
68509;SDS011;55512;50.102;19.958;2023-02-16T07:08:19;51.60;;;24.20;;
68509;SDS011;55512;50.102;19.958;2023-02-16T07:10:46;57.00;;;25.20;;
68509;SDS011;55512;50.102;19.958;2023-02-16T07:13:12;52.00;;;23.70;;
68509;SDS011;55512;50.102;19.958;2023-02-16T07:15:37;56.80;;;25.70;;
68509;SDS011;55512;50.102;19.958;2023-02-16T07:18:04;57.80;;;25.30;;
68509;SDS011;55512;50.102;19.958;2023-02-16T07:20:29;56.80;;;24.90;;
68509;SDS011;55512;50.102;19.958;2023-02-16T07:22:55;43.80;;;20.30;;
68509;SDS011;55512;50.102;19.958;2023-02-16T07:25:20;48.10;;;20.70;;
68509;SDS011;55512;50.102;19.958;2023-02-16T07:27:46;53.60;;;23.70;;
68509;SDS011;55512;50.102;19.958;2023-02-16T07:30:12;49.90;;;23.10;;
68509;SDS011;55512;50.102;19.958;2023-02-16T07:32:40;59.20;;;27.60;;
68509;SDS011;55512;50.102;19.958;2023-02-16T07:35:07;47.10;;;20.10;;
68509;SDS011;55512;50.102;19.958;2023-02-16T07:37:33;58.10;;;25.30;;
68509;SDS011;55512;50.102;19.958;2023-02-16T07:39:58;53.20;;;24.70;;
68509;SDS011;55512;50.102;19.958;2023-02-16T07:42:24;50.70;;;25.10;;
68509;SDS011;55512;50.102;19.958;2023-02-16T07:44:54;56.80;;;26.60;;
68509;SDS011;55512;50.102;19.958;2023-02-16T07:47:19;52.40;;;23.40;;
68509;SDS011;55512;50.102;19.958;2023-02-16T07:49:44;39.00;;;17.30;;
68509;SDS011;55512;50.102;19.958;2023-02-16T07:52:10;40.40;;;17.60;;
68509;SDS011;55512;50.102;19.958;2023-02-16T07:54:35;41.30;;;17.80;;
68509;SDS011;55512;50.102;19.958;2023-02-16T07:57:02;52.10;;;22.10;;
68509;SDS011;55512;50.102;19.958;2023-02-16T07:59:27;37.80;;;17.80;;
68509;SDS011;55512;50.102;19.958;2023-02-16T08:01:53;60.00;;;24.50;;
68509;SDS011;55512;50.102;19.958;2023-02-16T08:04:18;48.40;;;23.70;;
68509;SDS011;55512;50.102;19.958;2023-02-16T08:06:44;45.00;;;19.90;;
68509;SDS011;55512;50.102;19.958;2023-02-16T08:09:11;52.10;;;23.00;;
68509;SDS011;55512;50.102;19.958;2023-02-16T08:11:36;53.00;;;23.20;;
68509;SDS011;55512;50.102;19.958;2023-02-16T08:14:02;46.10;;;22.60;;
68509;SDS011;55512;50.102;19.958;2023-02-16T08:16:28;47.20;;;23.60;;
68509;SDS011;55512;50.102;19.958;2023-02-16T08:18:55;53.00;;;23.80;;
68509;SDS011;55512;50.102;19.958;2023-02-16T08:21:24;53.60;;;22.60;;
68509;SDS011;55512;50.102;19.958;2023-02-16T08:23:57;42.30;;;19.70;;
68509;SDS011;55512;50.102;19.958;2023-02-16T08:26:29;56.00;;;24.10;;
68509;SDS011;55512;50.102;19.958;2023-02-16T08:28:58;35.60;;;17.50;;
68509;SDS011;55512;50.102;19.958;2023-02-16T08:31:27;50.30;;;23.10;;
68509;SDS011;55512;50.102;19.958;2023-02-16T08:33:56;46.50;;;21.40;;
68509;SDS011;55512;50.102;19.958;2023-02-16T08:36:31;54.90;;;22.30;;
68509;SDS011;55512;50.102;19.958;2023-02-16T08:39:11;30.20;;;13.80;;
68509;SDS011;55512;50.102;19.958;2023-02-16T08:41:39;51.50;;;25.30;;
68509;SDS011;55512;50.102;19.958;2023-02-16T08:44:06;51.20;;;24.50;;
68509;SDS011;55512;50.102;19.958;2023-02-16T08:46:34;53.10;;;23.10;;
68509;SDS011;55512;50.102;19.958;2023-02-16T08:49:02;47.70;;;22.30;;
68509;SDS011;55512;50.102;19.958;2023-02-16T08:51:30;52.40;;;23.90;;
68509;SDS011;55512;50.102;19.958;2023-02-16T08:54:03;49.30;;;22.70;;
68509;SDS011;55512;50.102;19.958;2023-02-16T08:56:32;48.80;;;22.80;;
68509;SDS011;55512;50.102;19.958;2023-02-16T08:58:58;50.20;;;22.30;;
68509;SDS011;55512;50.102;19.958;2023-02-16T09:01:24;47.70;;;23.20;;
68509;SDS011;55512;50.102;19.958;2023-02-16T09:03:51;48.50;;;22.50;;
68509;SDS011;55512;50.102;19.958;2023-02-16T09:06:18;51.60;;;21.10;;
68509;SDS011;55512;50.102;19.958;2023-02-16T09:08:49;45.00;;;19.40;;
68509;SDS011;55512;50.102;19.958;2023-02-16T09:11:17;49.40;;;23.30;;
68509;SDS011;55512;50.102;19.958;2023-02-16T09:13:43;46.90;;;20.70;;
68509;SDS011;55512;50.102;19.958;2023-02-16T09:16:17;49.40;;;21.90;;
68509;SDS011;55512;50.102;19.958;2023-02-16T09:18:45;45.30;;;22.00;;
68509;SDS011;55512;50.102;19.958;2023-02-16T09:21:19;46.40;;;21.10;;
68509;SDS011;55512;50.102;19.958;2023-02-16T09:23:50;44.70;;;20.90;;
68509;SDS011;55512;50.102;19.958;2023-02-16T09:26:20;44.20;;;21.00;;
68509;SDS011;55512;50.102;19.958;2023-02-16T09:28:48;36.50;;;17.00;;
68509;SDS011;55512;50.102;19.958;2023-02-16T09:34:00;45.80;;;19.60;;
68509;SDS011;55512;50.102;19.958;2023-02-16T09:36:27;33.90;;;14.90;;
68509;SDS011;55512;50.102;19.958;2023-02-16T09:38:54;44.50;;;20.20;;
68509;SDS011;55512;50.102;19.958;2023-02-16T09:41:27;46.70;;;19.90;;
68509;SDS011;55512;50.102;19.958;2023-02-16T09:44:22;43.60;;;19.20;;
68509;SDS011;55512;50.102;19.958;2023-02-16T09:47:16;34.50;;;14.30;;
68509;SDS011;55512;50.102;19.958;2023-02-16T09:49:46;44.00;;;18.60;;
68509;SDS011;55512;50.102;19.958;2023-02-16T09:55:01;36.20;;;16.30;;
68509;SDS011;55512;50.102;19.958;2023-02-16T09:57:35;38.30;;;17.20;;
68509;SDS011;55512;50.102;19.958;2023-02-16T10:00:42;38.80;;;16.90;;
68509;SDS011;55512;50.102;19.958;2023-02-16T10:08:54;35.00;;;15.10;;
68509;SDS011;55512;50.102;19.958;2023-02-16T10:11:36;34.70;;;16.30;;
68509;SDS011;55512;50.102;19.958;2023-02-16T10:14:11;34.60;;;16.30;;
68509;SDS011;55512;50.102;19.958;2023-02-16T10:17:00;35.10;;;16.00;;
68509;SDS011;55512;50.102;19.958;2023-02-16T10:19:32;33.70;;;15.40;;
68509;SDS011;55512;50.102;19.958;2023-02-16T10:22:12;28.70;;;12.80;;
68509;SDS011;55512;50.102;19.958;2023-02-16T10:25:00;31.30;;;15.60;;
68509;SDS011;55512;50.102;19.958;2023-02-16T10:27:37;32.70;;;15.70;;
68509;SDS011;55512;50.102;19.958;2023-02-16T10:30:16;29.00;;;14.30;;
68509;SDS011;55512;50.102;19.958;2023-02-16T10:32:59;36.60;;;16.20;;
68509;SDS011;55512;50.102;19.958;2023-02-16T10:35:45;30.00;;;13.80;;
68509;SDS011;55512;50.102;19.958;2023-02-16T10:38:48;30.20;;;14.70;;
68509;SDS011;55512;50.102;19.958;2023-02-16T10:41:36;30.80;;;14.60;;
68509;SDS011;55512;50.102;19.958;2023-02-16T10:44:54;33.40;;;13.90;;
68509;SDS011;55512;50.102;19.958;2023-02-16T10:47:04;28.90;;;13.80;;
68509;SDS011;55512;50.102;19.958;2023-02-16T10:49:43;26.60;;;11.60;;
68509;SDS011;55512;50.102;19.958;2023-02-16T10:52:10;28.40;;;12.60;;
68509;SDS011;55512;50.102;19.958;2023-02-16T10:54:35;31.30;;;13.60;;
68509;SDS011;55512;50.102;19.958;2023-02-16T10:57:05;26.00;;;12.80;;
68509;SDS011;55512;50.102;19.958;2023-02-16T10:59:42;21.20;;;9.60;;
68509;SDS011;55512;50.102;19.958;2023-02-16T11:02:25;25.70;;;11.30;;
68509;SDS011;55512;50.102;19.958;2023-02-16T11:04:53;23.40;;;11.20;;
68509;SDS011;55512;50.102;19.958;2023-02-16T11:07:26;25.50;;;12.30;;
68509;SDS011;55512;50.102;19.958;2023-02-16T11:09:56;23.60;;;11.50;;
68509;SDS011;55512;50.102;19.958;2023-02-16T11:12:37;26.70;;;12.50;;
68509;SDS011;55512;50.102;19.958;2023-02-16T11:17:51;25.00;;;11.10;;
68509;SDS011;55512;50.102;19.958;2023-02-16T11:20:53;28.90;;;11.50;;
68509;SDS011;55512;50.102;19.958;2023-02-16T11:23:23;22.00;;;9.40;;
68509;SDS011;55512;50.102;19.958;2023-02-16T11:28:46;25.90;;;10.80;;
68509;SDS011;55512;50.102;19.958;2023-02-16T11:36:36;20.40;;;8.80;;
68509;SDS011;55512;50.102;19.958;2023-02-16T11:39:22;20.90;;;10.40;;
68509;SDS011;55512;50.102;19.958;2023-02-16T11:41:53;25.60;;;10.90;;
68509;SDS011;55512;50.102;19.958;2023-02-16T11:49:48;20.70;;;9.60;;
68509;SDS011;55512;50.102;19.958;2023-02-16T11:52:24;20.50;;;10.10;;
68509;SDS011;55512;50.102;19.958;2023-02-16T11:54:54;22.40;;;11.30;;
68509;SDS011;55512;50.102;19.958;2023-02-16T11:57:34;19.30;;;8.80;;
68509;SDS011;55512;50.102;19.958;2023-02-16T12:00:13;21.80;;;10.80;;
68509;SDS011;55512;50.102;19.958;2023-02-16T12:03:10;19.50;;;10.00;;
68509;SDS011;55512;50.102;19.958;2023-02-16T12:08:54;24.20;;;10.40;;
68509;SDS011;55512;50.102;19.958;2023-02-16T12:14:41;17.40;;;8.20;;
68509;SDS011;55512;50.102;19.958;2023-02-16T12:23:53;20.40;;;9.20;;
68509;SDS011;55512;50.102;19.958;2023-02-16T12:26:46;18.10;;;9.90;;
68509;SDS011;55512;50.102;19.958;2023-02-16T12:41:23;14.90;;;6.90;;
68509;SDS011;55512;50.102;19.958;2023-02-16T12:43:54;20.20;;;9.50;;
68509;SDS011;55512;50.102;19.958;2023-02-16T12:46:30;18.60;;;8.50;;
68509;SDS011;55512;50.102;19.958;2023-02-16T12:52:09;17.10;;;7.90;;
68509;SDS011;55512;50.102;19.958;2023-02-16T12:54:51;17.30;;;9.50;;
68509;SDS011;55512;50.102;19.958;2023-02-16T12:57:30;16.20;;;8.80;;
68509;SDS011;55512;50.102;19.958;2023-02-16T13:09:13;20.20;;;9.20;;
68509;SDS011;55512;50.102;19.958;2023-02-16T13:14:41;22.40;;;11.00;;
68509;SDS011;55512;50.102;19.958;2023-02-16T13:17:17;19.90;;;9.90;;
68509;SDS011;55512;50.102;19.958;2023-02-16T13:19:48;18.30;;;10.10;;
68509;SDS011;55512;50.102;19.958;2023-02-16T13:25:53;17.70;;;9.00;;
68509;SDS011;55512;50.102;19.958;2023-02-16T13:37:15;16.40;;;8.50;;
68509;SDS011;55512;50.102;19.958;2023-02-16T13:43:15;15.10;;;6.60;;
68509;SDS011;55512;50.102;19.958;2023-02-16T13:45:51;18.50;;;8.60;;
68509;SDS011;55512;50.102;19.958;2023-02-16T13:48:24;18.40;;;9.10;;
68509;SDS011;55512;50.102;19.958;2023-02-16T13:51:04;14.60;;;7.70;;
68509;SDS011;55512;50.102;19.958;2023-02-16T13:53:36;17.10;;;8.60;;
68509;SDS011;55512;50.102;19.958;2023-02-16T13:56:21;17.10;;;8.20;;
68509;SDS011;55512;50.102;19.958;2023-02-16T13:58:49;19.10;;;9.10;;
68509;SDS011;55512;50.102;19.958;2023-02-16T14:01:39;16.80;;;8.30;;
68509;SDS011;55512;50.102;19.958;2023-02-16T14:06:51;11.70;;;6.20;;
68509;SDS011;55512;50.102;19.958;2023-02-16T14:09:47;17.20;;;9.40;;
68509;SDS011;55512;50.102;19.958;2023-02-16T14:12:19;14.20;;;7.30;;
68509;SDS011;55512;50.102;19.958;2023-02-16T14:19:52;19.10;;;8.70;;
68509;SDS011;55512;50.102;19.958;2023-02-16T14:22:31;18.20;;;8.50;;
68509;SDS011;55512;50.102;19.958;2023-02-16T14:28:05;17.40;;;9.30;;
68509;SDS011;55512;50.102;19.958;2023-02-16T14:30:57;18.40;;;8.40;;
68509;SDS011;55512;50.102;19.958;2023-02-16T14:33:39;18.40;;;9.00;;
68509;SDS011;55512;50.102;19.958;2023-02-16T14:36:16;18.20;;;9.30;;
68509;SDS011;55512;50.102;19.958;2023-02-16T14:38:45;17.50;;;9.40;;
68509;SDS011;55512;50.102;19.958;2023-02-16T14:43:49;18.70;;;10.90;;
68509;SDS011;55512;50.102;19.958;2023-02-16T14:46:22;20.30;;;10.70;;
68509;SDS011;55512;50.102;19.958;2023-02-16T14:58:30;20.40;;;10.60;;
68509;SDS011;55512;50.102;19.958;2023-02-16T15:01:13;18.70;;;10.20;;
68509;SDS011;55512;50.102;19.958;2023-02-16T15:03:51;17.70;;;9.70;;
68509;SDS011;55512;50.102;19.958;2023-02-16T15:06:20;21.10;;;10.60;;
68509;SDS011;55512;50.102;19.958;2023-02-16T15:09:17;18.70;;;9.90;;
68509;SDS011;55512;50.102;19.958;2023-02-16T15:12:05;19.60;;;10.50;;
68509;SDS011;55512;50.102;19.958;2023-02-16T15:15:05;19.70;;;9.90;;
68509;SDS011;55512;50.102;19.958;2023-02-16T15:17:39;18.00;;;8.90;;
68509;SDS011;55512;50.102;19.958;2023-02-16T15:20:20;18.20;;;9.70;;
68509;SDS011;55512;50.102;19.958;2023-02-16T15:23:14;19.90;;;10.00;;
68509;SDS011;55512;50.102;19.958;2023-02-16T15:26:00;19.50;;;9.20;;
68509;SDS011;55512;50.102;19.958;2023-02-16T15:28:34;21.90;;;10.70;;
68509;SDS011;55512;50.102;19.958;2023-02-16T15:31:13;22.90;;;11.10;;
68509;SDS011;55512;50.102;19.958;2023-02-16T15:33:52;20.60;;;10.40;;
68509;SDS011;55512;50.102;19.958;2023-02-16T15:36:29;21.10;;;10.10;;
68509;SDS011;55512;50.102;19.958;2023-02-16T15:39:07;24.00;;;11.40;;
68509;SDS011;55512;50.102;19.958;2023-02-16T15:41:43;27.90;;;12.80;;
68509;SDS011;55512;50.102;19.958;2023-02-16T15:44:31;20.80;;;11.40;;
68509;SDS011;55512;50.102;19.958;2023-02-16T15:49:33;26.10;;;12.20;;
68509;SDS011;55512;50.102;19.958;2023-02-16T15:52:15;24.00;;;12.10;;
68509;SDS011;55512;50.102;19.958;2023-02-16T15:54:44;26.20;;;12.70;;
68509;SDS011;55512;50.102;19.958;2023-02-16T15:57:32;22.40;;;10.60;;
68509;SDS011;55512;50.102;19.958;2023-02-16T16:00:13;25.50;;;12.60;;
68509;SDS011;55512;50.102;19.958;2023-02-16T16:02:46;26.00;;;13.20;;
68509;SDS011;55512;50.102;19.958;2023-02-16T16:05:39;27.60;;;14.30;;
68509;SDS011;55512;50.102;19.958;2023-02-16T16:08:12;24.60;;;11.80;;
68509;SDS011;55512;50.102;19.958;2023-02-16T16:10:39;28.80;;;13.80;;
68509;SDS011;55512;50.102;19.958;2023-02-16T16:13:27;26.50;;;12.80;;
68509;SDS011;55512;50.102;19.958;2023-02-16T16:15:57;24.60;;;12.10;;
68509;SDS011;55512;50.102;19.958;2023-02-16T16:18:43;23.40;;;11.90;;
68509;SDS011;55512;50.102;19.958;2023-02-16T16:21:25;25.80;;;11.60;;
68509;SDS011;55512;50.102;19.958;2023-02-16T16:24:09;20.80;;;11.70;;
68509;SDS011;55512;50.102;19.958;2023-02-16T16:26:56;25.70;;;12.60;;
68509;SDS011;55512;50.102;19.958;2023-02-16T16:32:23;25.60;;;12.00;;
68509;SDS011;55512;50.102;19.958;2023-02-16T16:34:53;28.30;;;13.70;;
68509;SDS011;55512;50.102;19.958;2023-02-16T16:37:29;26.30;;;13.90;;
68509;SDS011;55512;50.102;19.958;2023-02-16T16:40:19;25.60;;;12.30;;
68509;SDS011;55512;50.102;19.958;2023-02-16T16:45:43;28.20;;;14.00;;
68509;SDS011;55512;50.102;19.958;2023-02-16T16:48:33;29.90;;;14.60;;
68509;SDS011;55512;50.102;19.958;2023-02-16T16:51:10;32.20;;;16.20;;
68509;SDS011;55512;50.102;19.958;2023-02-16T16:53:54;27.40;;;13.10;;
68509;SDS011;55512;50.102;19.958;2023-02-16T16:56:26;30.10;;;14.20;;
68509;SDS011;55512;50.102;19.958;2023-02-16T16:58:54;32.00;;;15.10;;
68509;SDS011;55512;50.102;19.958;2023-02-16T17:01:23;29.10;;;14.90;;
68509;SDS011;55512;50.102;19.958;2023-02-16T17:03:52;18.70;;;9.50;;
68509;SDS011;55512;50.102;19.958;2023-02-16T17:06:18;25.50;;;12.50;;
68509;SDS011;55512;50.102;19.958;2023-02-16T17:08:44;33.40;;;15.20;;
68509;SDS011;55512;50.102;19.958;2023-02-16T17:11:24;29.50;;;14.40;;
68509;SDS011;55512;50.102;19.958;2023-02-16T17:13:52;31.10;;;15.90;;
68509;SDS011;55512;50.102;19.958;2023-02-16T17:16:27;31.90;;;15.10;;